createdAt,value
2023-01-03T00:00:40.445Z,48.10
2023-01-03T00:03:28.044Z,50.00
2023-01-03T00:05:55.200Z,47.80
2023-01-03T00:08:22.341Z,44.70
2023-01-03T00:10:49.809Z,47.60
2023-01-03T00:13:16.949Z,44.00
2023-01-03T00:15:44.375Z,45.50
2023-01-03T00:18:12.069Z,45.20
2023-01-03T00:20:39.224Z,48.60
2023-01-03T00:23:06.474Z,43.80
2023-01-03T00:25:33.831Z,45.30
2023-01-03T00:28:01.089Z,46.50
2023-01-03T00:30:28.715Z,45.40
2023-01-03T00:32:56.253Z,41.70
2023-01-03T00:35:23.249Z,41.20
2023-01-03T00:37:50.605Z,46.30
2023-01-03T00:40:18.078Z,41.20
2023-01-03T00:43:04.056Z,45.70
2023-01-03T00:45:35.266Z,44.60
2023-01-03T00:48:03.016Z,44.60
2023-01-03T00:50:30.218Z,44.00
2023-01-03T00:52:57.488Z,40.20
2023-01-03T00:55:24.726Z,40.80
2023-01-03T00:57:51.982Z,46.10
2023-01-03T01:00:19.241Z,41.90
2023-01-03T01:02:46.891Z,47.10
2023-01-03T01:05:14.360Z,39.90
2023-01-03T01:07:41.602Z,42.30
2023-01-03T01:10:09.059Z,41.60
2023-01-03T01:12:36.526Z,43.70
2023-01-03T01:15:04.795Z,45.80
2023-01-03T01:17:31.946Z,40.20
2023-01-03T01:19:59.711Z,44.40
2023-01-03T01:22:27.277Z,43.70
2023-01-03T01:24:54.421Z,41.60
2023-01-03T01:27:21.776Z,42.40
2023-01-03T01:29:49.865Z,42.00
2023-01-03T01:32:17.103Z,43.30
2023-01-03T01:34:44.252Z,39.20
2023-01-03T01:37:11.652Z,40.50
2023-01-03T01:39:38.899Z,40.50
2023-01-03T01:42:31.422Z,41.70
2023-01-03T01:45:12.226Z,41.60
2023-01-03T01:47:43.326Z,44.80
2023-01-03T01:50:22.350Z,39.20
2023-01-03T01:53:02.850Z,40.80
2023-01-03T01:55:41.440Z,39.30
2023-01-03T01:58:09.710Z,42.90
2023-01-03T02:00:37.384Z,42.00
2023-01-03T02:03:05.202Z,44.80
2023-01-03T02:05:35.870Z,43.00
2023-01-03T02:08:06.000Z,46.20
2023-01-03T02:11:00.280Z,47.70
2023-01-03T02:13:38.280Z,44.90
2023-01-03T02:16:21.822Z,41.20
2023-01-03T02:19:27.674Z,40.60
2023-01-03T02:22:40.599Z,43.30
2023-01-03T02:25:33.969Z,40.60
2023-01-03T02:28:50.268Z,40.90
2023-01-03T02:31:36.103Z,46.50
2023-01-03T02:34:29.120Z,42.40
2023-01-03T02:37:48.191Z,39.80
2023-01-03T02:40:38.428Z,44.50
2023-01-03T02:43:29.594Z,42.20
2023-01-03T02:46:13.564Z,43.00
2023-01-03T02:49:08.442Z,45.80
2023-01-03T02:51:44.697Z,41.70
2023-01-03T02:54:18.258Z,37.40
2023-01-03T02:56:54.364Z,34.10
2023-01-03T02:59:30.621Z,39.00
2023-01-03T03:02:00.358Z,39.70
2023-01-03T03:04:28.672Z,38.00
2023-01-03T03:07:06.920Z,40.30
2023-01-03T03:09:54.473Z,41.30
2023-01-03T03:12:42.599Z,42.00
2023-01-03T03:15:12.512Z,44.80
2023-01-03T03:17:42.270Z,44.30
2023-01-03T03:20:34.772Z,42.80
2023-01-03T03:23:45.030Z,44.30
2023-01-03T03:26:20.676Z,49.20
2023-01-03T03:28:53.663Z,44.70
2023-01-03T03:31:25.939Z,49.70
2023-01-03T03:34:14.489Z,47.00
2023-01-03T03:37:00.577Z,67.60
2023-01-03T03:39:49.031Z,79.30
2023-01-03T03:42:44.547Z,98.60
2023-01-03T03:45:31.947Z,76.50
2023-01-03T03:48:24.527Z,53.00
2023-01-03T03:51:02.013Z,68.80
2023-01-03T03:53:34.270Z,53.20
2023-01-03T03:56:09.242Z,50.10
2023-01-03T03:58:41.230Z,50.80
2023-01-03T04:01:11.262Z,45.60
2023-01-03T04:03:42.032Z,59.10
2023-01-03T04:06:18.203Z,73.60
2023-01-03T04:08:45.778Z,41.40
2023-01-03T04:11:13.316Z,68.60
2023-01-03T04:13:40.465Z,67.80
2023-01-03T04:16:07.919Z,83.80
2023-01-03T04:18:35.587Z,56.70
2023-01-03T04:21:03.065Z,61.10
2023-01-03T04:23:30.608Z,51.20
2023-01-03T04:25:57.756Z,60.30
2023-01-03T04:28:25.119Z,83.20
2023-01-03T04:30:52.877Z,58.90
2023-01-03T04:33:20.228Z,105.70
2023-01-03T04:35:47.688Z,70.60
2023-01-03T04:38:15.120Z,180.70
2023-01-03T04:40:42.296Z,63.00
2023-01-03T04:43:29.928Z,57.10
2023-01-03T04:45:57.630Z,75.60
2023-01-03T04:48:25.045Z,88.30
2023-01-03T04:50:57.006Z,54.40
2023-01-03T04:53:26.965Z,133.80
2023-01-03T04:55:56.335Z,118.40
2023-01-03T04:58:23.690Z,38.80
2023-01-03T05:00:51.879Z,76.90
2023-01-03T05:03:22.631Z,65.60
2023-01-03T05:06:03.884Z,42.30
2023-01-03T05:08:31.330Z,79.90
2023-01-03T05:10:58.689Z,77.50
2023-01-03T05:13:26.460Z,45.30
2023-01-03T05:15:53.804Z,41.00
2023-01-03T05:18:21.068Z,41.40
2023-01-03T05:21:07.255Z,43.50
2023-01-03T05:23:53.356Z,41.20
2023-01-03T05:26:21.842Z,37.10
2023-01-03T05:28:53.940Z,38.30
2023-01-03T05:31:21.163Z,42.50
2023-01-03T05:33:49.544Z,40.20
2023-01-03T05:36:16.928Z,42.80
2023-01-03T05:38:44.238Z,39.00
2023-01-03T05:41:13.656Z,40.30
2023-01-03T05:43:40.937Z,42.40
2023-01-03T05:46:08.094Z,43.00
2023-01-03T05:48:35.833Z,45.30
2023-01-03T05:51:03.787Z,42.00
2023-01-03T05:53:31.548Z,45.80
2023-01-03T05:56:04.624Z,41.40
2023-01-03T05:58:31.689Z,40.70
2023-01-03T06:00:58.837Z,43.70
2023-01-03T06:03:27.319Z,38.70
2023-01-03T06:05:54.676Z,38.60
2023-01-03T06:08:22.135Z,42.10
2023-01-03T06:10:49.494Z,44.80
2023-01-03T06:13:19.019Z,44.20
2023-01-03T06:16:06.316Z,45.40
2023-01-03T06:18:34.693Z,43.20
2023-01-03T06:21:06.268Z,45.30
2023-01-03T06:23:33.495Z,41.50
2023-01-03T06:26:03.431Z,42.10
2023-01-03T06:28:30.669Z,40.80
2023-01-03T06:30:58.152Z,45.20
2023-01-03T06:33:25.786Z,42.10
2023-01-03T06:35:52.938Z,43.60
2023-01-03T06:38:20.639Z,39.30
2023-01-03T06:40:49.188Z,39.50
2023-01-03T06:43:16.432Z,46.20
2023-01-03T06:46:02.998Z,42.20
2023-01-03T06:48:49.034Z,41.30
2023-01-03T06:51:48.962Z,39.90
2023-01-03T06:54:26.601Z,37.70
2023-01-03T06:56:55.146Z,35.00
2023-01-03T06:59:22.921Z,37.50
2023-01-03T07:01:52.155Z,40.30
2023-01-03T07:04:21.428Z,36.60
2023-01-03T07:06:48.857Z,40.30
2023-01-03T07:09:16.934Z,35.80
2023-01-03T07:11:44.795Z,37.80
2023-01-03T07:14:13.482Z,39.80
2023-01-03T07:16:43.700Z,37.90
2023-01-03T07:19:19.633Z,35.60
2023-01-03T07:21:48.248Z,32.30
2023-01-03T07:24:18.650Z,30.50
2023-01-03T07:26:51.459Z,33.40
2023-01-03T07:29:19.123Z,31.10
2023-01-03T07:31:46.516Z,31.20
2023-01-03T07:34:14.754Z,30.60
2023-01-03T07:36:42.532Z,33.70
2023-01-03T07:39:09.873Z,33.60
2023-01-03T07:41:55.766Z,31.60
2023-01-03T07:44:23.428Z,32.60
2023-01-03T07:46:50.907Z,29.60
2023-01-03T07:49:19.984Z,33.30
2023-01-03T07:51:47.239Z,31.20
2023-01-03T07:54:14.490Z,32.30
2023-01-03T07:56:42.255Z,30.30
2023-01-03T07:59:09.514Z,30.20
2023-01-03T08:01:37.281Z,30.00
2023-01-03T08:04:04.942Z,26.80
2023-01-03T08:06:33.213Z,27.70
2023-01-03T08:09:19.821Z,30.60
2023-01-03T08:12:05.925Z,30.10
2023-01-03T08:14:33.476Z,32.90
2023-01-03T08:17:00.835Z,31.70
2023-01-03T08:19:28.597Z,27.30
2023-01-03T08:21:55.955Z,26.40
2023-01-03T08:24:24.039Z,30.50
2023-01-03T08:26:51.483Z,25.60
2023-01-03T08:29:19.567Z,30.10
2023-01-03T08:31:53.640Z,24.40
2023-01-03T08:34:29.006Z,24.50
2023-01-03T08:37:07.450Z,27.90
2023-01-03T08:39:41.955Z,28.40
2023-01-03T08:42:13.199Z,31.40
2023-01-03T08:47:14.591Z,28.90
2023-01-03T08:49:42.868Z,29.40
2023-01-03T08:52:11.436Z,33.50
2023-01-03T08:54:40.329Z,27.40
2023-01-03T08:57:07.420Z,27.90
2023-01-03T08:59:34.802Z,30.00
2023-01-03T09:02:02.866Z,27.90
2023-01-03T09:04:30.564Z,24.70
2023-01-03T09:06:58.894Z,28.20
2023-01-03T09:09:26.409Z,29.10
2023-01-03T09:11:53.964Z,27.80
2023-01-03T09:14:21.623Z,29.00
2023-01-03T09:16:50.302Z,29.70
2023-01-03T09:19:17.747Z,25.60
2023-01-03T09:21:45.024Z,26.60
2023-01-03T09:24:12.551Z,28.50
2023-01-03T09:26:41.087Z,26.40
2023-01-03T09:29:08.645Z,27.10
2023-01-03T09:31:41.604Z,27.90
2023-01-03T09:34:08.766Z,29.40
2023-01-03T09:36:38.121Z,27.40
2023-01-03T09:39:06.660Z,24.20
2023-01-03T09:41:35.644Z,25.20
2023-01-03T09:44:06.581Z,26.90
2023-01-03T09:46:36.770Z,25.90
2023-01-03T09:49:06.900Z,26.10
2023-01-03T09:52:03.395Z,25.50
2023-01-03T09:55:00.241Z,26.70
2023-01-03T09:57:50.612Z,24.20
2023-01-03T10:00:44.777Z,23.20
2023-01-03T10:03:31.203Z,23.60
2023-01-03T10:06:11.971Z,21.10
2023-01-03T10:09:01.369Z,24.80
2023-01-03T10:11:54.091Z,26.30
2023-01-03T10:14:34.150Z,24.30
2023-01-03T10:17:16.869Z,25.90
2023-01-03T10:19:50.260Z,23.90
2023-01-03T10:22:28.275Z,26.40
2023-01-03T10:25:05.248Z,25.80
2023-01-03T10:28:10.596Z,25.60
2023-01-03T10:30:57.408Z,29.10
2023-01-03T10:33:34.516Z,24.30
2023-01-03T10:36:03.087Z,21.70
2023-01-03T10:38:30.235Z,28.50
2023-01-03T10:41:00.245Z,26.50
2023-01-03T10:43:40.300Z,23.40
2023-01-03T10:46:23.181Z,23.60
2023-01-03T10:49:26.097Z,26.60
2023-01-03T10:51:43.408Z,25.50
2023-01-03T10:54:46.457Z,26.90
2023-01-03T10:57:39.310Z,27.70
2023-01-03T11:00:26.104Z,25.40
2023-01-03T11:02:56.138Z,26.80
2023-01-03T11:05:26.334Z,24.20
2023-01-03T11:08:01.782Z,27.60
2023-01-03T11:10:58.433Z,23.50
2023-01-03T11:13:25.818Z,24.40
2023-01-03T11:15:56.571Z,23.60
2023-01-03T11:18:27.248Z,25.80
2023-01-03T11:22:15.301Z,21.60
2023-01-03T11:25:39.788Z,23.90
2023-01-03T11:38:35.985Z,21.50
2023-01-03T11:41:09.068Z,22.80
2023-01-03T11:43:48.811Z,22.10
2023-01-03T11:46:31.165Z,23.20
2023-01-03T11:48:59.727Z,20.30
2023-01-03T11:51:44.515Z,20.90
2023-01-03T11:54:46.516Z,21.70
2023-01-03T11:57:23.107Z,22.60
2023-01-03T12:00:08.497Z,19.80
2023-01-03T12:03:01.887Z,21.90
2023-01-03T12:05:44.773Z,21.50
2023-01-03T12:08:20.425Z,22.50
2023-01-03T12:11:13.963Z,21.60
2023-01-03T12:13:50.530Z,21.10
2023-01-03T12:16:55.812Z,20.60
2023-01-03T12:19:36.648Z,22.50
2023-01-03T12:22:13.468Z,20.60
2023-01-03T12:25:05.266Z,22.70
2023-01-03T12:27:44.177Z,19.50
2023-01-03T12:30:38.365Z,21.40
2023-01-03T12:33:32.898Z,19.30
2023-01-03T12:36:07.333Z,18.80
2023-01-03T12:38:44.761Z,17.60
2023-01-03T12:41:21.386Z,20.40
2023-01-03T12:43:57.350Z,21.40
2023-01-03T12:46:31.240Z,19.60
2023-01-03T12:49:10.795Z,19.60
2023-01-03T12:51:38.472Z,19.50
2023-01-03T12:54:54.766Z,20.40
2023-01-03T12:57:52.224Z,23.70
2023-01-03T13:00:32.691Z,18.00
2023-01-03T13:03:08.033Z,22.50
2023-01-03T13:05:43.812Z,18.80
2023-01-03T13:08:28.856Z,23.00
2023-01-03T13:11:00.818Z,25.70
2023-01-03T13:13:28.719Z,19.30
2023-01-03T13:15:56.252Z,23.90
2023-01-03T13:18:24.015Z,21.40
2023-01-03T13:20:55.260Z,20.80
2023-01-03T13:23:40.028Z,20.30
2023-01-03T13:26:27.807Z,20.30
2023-01-03T13:29:33.896Z,23.10
2023-01-03T13:32:14.447Z,21.10
2023-01-03T13:34:42.671Z,24.00
2023-01-03T13:37:15.676Z,20.30
2023-01-03T13:39:42.714Z,20.80
2023-01-03T13:42:33.309Z,23.40
2023-01-03T13:45:29.951Z,23.80
2023-01-03T13:47:58.850Z,21.90
2023-01-03T13:50:36.910Z,23.60
2023-01-03T13:53:12.092Z,25.70
2023-01-03T13:55:40.570Z,26.50
2023-01-03T13:58:40.227Z,24.70
2023-01-03T14:01:27.419Z,27.00
2023-01-03T14:04:19.541Z,27.40
2023-01-03T14:07:35.850Z,24.20
2023-01-03T14:10:23.996Z,26.30
2023-01-03T14:13:05.584Z,32.70
2023-01-03T14:15:35.062Z,30.30
2023-01-03T14:18:11.457Z,30.80
2023-01-03T14:20:42.620Z,31.00
2023-01-03T14:26:14.310Z,36.10
2023-01-03T14:28:48.708Z,33.80
2023-01-03T14:31:29.514Z,32.60
2023-01-03T14:34:00.175Z,39.20
2023-01-03T14:36:27.789Z,42.80
2023-01-03T14:40:01.189Z,43.30
2023-01-03T14:43:29.257Z,40.70
2023-01-03T14:47:03.186Z,37.00
2023-01-03T14:49:41.107Z,39.00
2023-01-03T14:53:08.340Z,39.30
2023-01-03T14:56:35.837Z,44.30
2023-01-03T15:00:08.589Z,39.40
2023-01-03T15:03:36.049Z,43.20
2023-01-03T15:11:04.789Z,39.30
2023-01-03T15:14:07.875Z,39.90
2023-01-03T15:17:30.117Z,42.00
2023-01-03T15:19:57.264Z,46.20
2023-01-03T15:22:38.036Z,43.90
2023-01-03T15:25:16.043Z,44.90
2023-01-03T15:27:45.460Z,42.90
2023-01-03T15:30:20.275Z,50.00
2023-01-03T15:32:59.894Z,52.20
2023-01-03T15:35:38.117Z,43.90
2023-01-03T15:38:36.327Z,48.40
2023-01-03T15:41:16.952Z,47.30
2023-01-03T15:43:44.947Z,51.70
2023-01-03T15:46:16.349Z,46.60
2023-01-03T15:48:54.608Z,50.60
2023-01-03T15:51:21.961Z,44.30
2023-01-03T15:53:52.579Z,42.20
2023-01-03T15:56:24.271Z,43.70
2023-01-03T16:02:26.285Z,43.70
2023-01-03T16:05:53.917Z,41.10
2023-01-03T16:09:21.077Z,40.60
2023-01-03T16:12:50.477Z,47.30
2023-01-03T16:15:21.068Z,43.10
2023-01-03T16:17:50.219Z,40.90
2023-01-03T16:20:19.449Z,42.20
2023-01-03T16:23:00.428Z,42.10
2023-01-03T16:25:28.906Z,46.70
2023-01-03T16:27:56.939Z,49.80
2023-01-03T16:30:24.483Z,59.00
2023-01-03T16:32:53.803Z,53.30
2023-01-03T16:35:21.362Z,62.60
2023-01-03T16:37:49.147Z,53.60
2023-01-03T16:40:18.954Z,60.90
2023-01-03T16:42:46.496Z,65.20
2023-01-03T16:45:15.191Z,97.90
2023-01-03T16:47:43.332Z,119.10
2023-01-03T16:50:19.834Z,101.40
2023-01-03T16:52:52.000Z,106.20
2023-01-03T16:55:33.051Z,99.90
2023-01-03T16:58:00.488Z,95.60
2023-01-03T17:00:30.816Z,92.50
2023-01-03T17:02:59.569Z,97.50
2023-01-03T17:05:33.486Z,88.70
2023-01-03T17:10:51.821Z,77.60
2023-01-03T17:13:43.149Z,79.90
2023-01-03T17:16:24.360Z,66.50
2023-01-03T17:18:53.309Z,75.40
2023-01-03T17:21:31.838Z,70.00
2023-01-03T17:24:07.060Z,68.20
2023-01-03T17:26:35.858Z,62.10
2023-01-03T17:29:05.701Z,67.80
2023-01-03T17:31:33.419Z,56.40
2023-01-03T17:34:11.644Z,65.20
2023-01-03T17:36:39.204Z,68.20
2023-01-03T17:39:10.674Z,77.30
2023-01-03T17:41:56.545Z,71.20
2023-01-03T17:44:26.056Z,73.30
2023-01-03T17:47:12.864Z,72.70
2023-01-03T17:49:40.628Z,79.80
2023-01-03T17:52:25.318Z,87.30
2023-01-03T17:54:53.464Z,65.00
2023-01-03T17:57:21.436Z,57.50
2023-01-03T17:59:49.201Z,55.70
2023-01-03T18:02:25.822Z,58.10
2023-01-03T18:07:41.999Z,44.30
2023-01-03T18:10:46.804Z,47.10
2023-01-03T18:13:23.714Z,42.00
2023-01-03T18:15:52.418Z,43.90
2023-01-03T18:18:22.441Z,43.60
2023-01-03T18:20:50.477Z,45.60
2023-01-03T18:23:38.627Z,38.00
2023-01-03T18:26:08.169Z,43.20
2023-01-03T18:28:35.519Z,43.30
2023-01-03T18:31:03.147Z,45.70
2023-01-03T18:33:30.816Z,44.00
2023-01-03T18:36:00.699Z,45.70
2023-01-03T18:38:31.661Z,41.90
2023-01-03T18:41:05.469Z,45.60
2023-01-03T18:43:38.618Z,49.70
2023-01-03T18:46:15.083Z,47.00
2023-01-03T18:48:47.502Z,47.80
2023-01-03T18:51:18.647Z,49.20
2023-01-03T18:53:52.146Z,42.10
2023-01-03T18:56:37.245Z,49.50
2023-01-03T18:59:26.293Z,48.30
2023-01-03T19:01:54.700Z,45.50
2023-01-03T19:04:22.096Z,45.40
2023-01-03T19:06:53.473Z,47.80
2023-01-03T19:09:28.956Z,44.80
2023-01-03T19:11:56.991Z,48.20
2023-01-03T19:14:24.370Z,44.60
2023-01-03T19:16:51.388Z,44.40
2023-01-03T19:19:19.067Z,42.40
2023-01-03T19:21:47.718Z,38.00
2023-01-03T19:24:38.925Z,40.60
2023-01-03T19:27:14.459Z,39.70
2023-01-03T19:29:42.885Z,45.20
2023-01-03T19:32:21.061Z,38.60
2023-01-03T19:34:49.250Z,37.60
2023-01-03T19:37:17.472Z,45.20
2023-01-03T19:39:45.101Z,46.00
2023-01-03T19:42:34.373Z,59.60
2023-01-03T19:45:13.195Z,58.00
2023-01-03T19:47:40.651Z,46.90
2023-01-03T19:50:21.467Z,52.90
2023-01-03T19:52:54.719Z,45.50
2023-01-03T19:55:27.674Z,44.10
2023-01-03T19:57:57.830Z,43.70
2023-01-03T20:00:31.654Z,42.90
2023-01-03T20:03:05.933Z,39.60
2023-01-03T20:05:34.845Z,37.00
2023-01-03T20:08:12.107Z,41.60
2023-01-03T20:10:43.185Z,40.50
2023-01-03T20:13:27.834Z,36.50
2023-01-03T20:15:59.638Z,38.50
2023-01-03T20:18:30.428Z,35.60
2023-01-03T20:21:03.772Z,41.90
2023-01-03T20:23:38.057Z,45.30
2023-01-03T20:26:06.323Z,40.90
2023-01-03T20:28:33.367Z,37.70
2023-01-03T20:31:01.600Z,38.20
2023-01-03T20:33:29.464Z,40.40
2023-01-03T20:36:19.607Z,39.70
2023-01-03T20:38:55.110Z,35.40
2023-01-03T20:41:35.462Z,38.10
2023-01-03T20:44:04.282Z,36.60
2023-01-03T20:46:31.567Z,36.80
2023-01-03T20:49:02.194Z,39.40
2023-01-03T20:51:29.445Z,45.50
2023-01-03T20:53:57.040Z,93.30
2023-01-03T20:56:26.206Z,72.10
2023-01-03T20:58:53.452Z,65.20
2023-01-03T21:01:21.059Z,74.70
2023-01-03T21:03:49.091Z,90.10
2023-01-03T21:06:21.863Z,63.70
2023-01-03T21:08:56.124Z,45.10
2023-01-03T21:11:27.742Z,43.50
2023-01-03T21:13:56.935Z,42.90
2023-01-03T21:16:35.991Z,38.70
2023-01-03T21:19:11.304Z,39.40
2023-01-03T21:21:39.070Z,44.40
2023-01-03T21:24:07.162Z,39.40
2023-01-03T21:26:34.601Z,41.20
2023-01-03T21:29:01.868Z,49.30
2023-01-03T21:31:29.224Z,44.10
2023-01-03T21:33:56.876Z,48.00
2023-01-03T21:36:29.556Z,42.90
2023-01-03T21:38:58.645Z,40.70
2023-01-03T21:41:32.631Z,35.50
2023-01-03T21:44:07.177Z,38.80
2023-01-03T21:46:34.307Z,42.90
2023-01-03T21:49:01.895Z,42.30
2023-01-03T21:51:38.346Z,44.00
2023-01-03T21:54:08.061Z,40.90
2023-01-03T21:56:44.726Z,40.00
2023-01-03T21:59:15.506Z,38.00
2023-01-03T22:02:03.201Z,43.10
2023-01-03T22:04:31.384Z,40.10
2023-01-03T22:06:59.973Z,38.50
2023-01-03T22:09:46.994Z,37.10
2023-01-03T22:12:15.937Z,31.30
2023-01-03T22:14:44.896Z,32.90
2023-01-03T22:17:12.236Z,40.20
2023-01-03T22:19:39.692Z,42.00
2023-01-03T22:22:07.144Z,35.00
2023-01-03T22:24:34.603Z,35.20
2023-01-03T22:27:01.648Z,37.70
2023-01-03T22:29:29.035Z,39.30
2023-01-03T22:31:56.268Z,37.40
2023-01-03T22:34:23.511Z,42.90
2023-01-03T22:36:51.075Z,44.20
2023-01-03T22:39:18.733Z,44.10
2023-01-03T22:41:46.102Z,38.60
2023-01-03T22:44:13.265Z,47.10
2023-01-03T22:46:40.899Z,41.10
2023-01-03T22:49:08.159Z,41.70
2023-01-03T22:51:35.406Z,44.10
2023-01-03T22:54:03.589Z,42.00
2023-01-03T22:56:30.839Z,40.90
2023-01-03T22:58:58.083Z,41.10
2023-01-03T23:01:28.643Z,38.40
2023-01-03T23:04:02.690Z,37.90
2023-01-03T23:06:31.422Z,35.40
2023-01-03T23:08:59.263Z,32.80
2023-01-03T23:11:48.767Z,30.70
2023-01-03T23:14:19.204Z,36.50
2023-01-03T23:16:47.340Z,33.30
2023-01-03T23:19:17.602Z,34.90
2023-01-03T23:21:45.691Z,31.80
2023-01-03T23:24:15.413Z,34.50
2023-01-03T23:26:42.938Z,33.10
2023-01-03T23:29:12.676Z,31.70
2023-01-03T23:31:39.685Z,36.90
2023-01-03T23:34:08.267Z,36.70
2023-01-03T23:36:35.313Z,40.50
2023-01-03T23:39:02.771Z,41.30
2023-01-03T23:41:30.167Z,39.10
2023-01-03T23:43:57.568Z,38.20
2023-01-03T23:46:24.959Z,36.20
2023-01-03T23:48:56.819Z,40.70
2023-01-03T23:51:25.085Z,38.80
2023-01-03T23:53:53.360Z,37.00
2023-01-03T23:56:23.275Z,38.90
2023-01-03T23:58:52.209Z,44.10
